sensor_id;sensor_type;location;lat;lon;timestamp;temperature;humidity
18073;DHT22;9161;47.348;9.648;2022-12-07T00:01:05;0.20;99.90
18073;DHT22;9161;47.348;9.648;2022-12-07T00:05:50;0.20;99.90
18073;DHT22;9161;47.348;9.648;2022-12-07T00:10:33;0.20;99.90
18073;DHT22;9161;47.348;9.648;2022-12-07T00:15:18;0.20;99.90
18073;DHT22;9161;47.348;9.648;2022-12-07T00:20:02;0.30;99.90
18073;DHT22;9161;47.348;9.648;2022-12-07T00:24:47;0.40;99.90
18073;DHT22;9161;47.348;9.648;2022-12-07T00:29:30;0.50;99.90
18073;DHT22;9161;47.348;9.648;2022-12-07T00:34:17;0.50;99.90
18073;DHT22;9161;47.348;9.648;2022-12-07T00:39:02;0.50;99.90
18073;DHT22;9161;47.348;9.648;2022-12-07T00:43:46;0.40;99.90
18073;DHT22;9161;47.348;9.648;2022-12-07T00:48:31;0.40;99.90
18073;DHT22;9161;47.348;9.648;2022-12-07T00:53:21;0.50;99.90
18073;DHT22;9161;47.348;9.648;2022-12-07T00:58:05;0.50;99.90
18073;DHT22;9161;47.348;9.648;2022-12-07T01:02:49;0.50;99.90
18073;DHT22;9161;47.348;9.648;2022-12-07T01:07:33;0.50;99.90
18073;DHT22;9161;47.348;9.648;2022-12-07T01:12:19;0.60;99.90
18073;DHT22;9161;47.348;9.648;2022-12-07T01:17:02;0.60;99.90
18073;DHT22;9161;47.348;9.648;2022-12-07T01:21:47;0.70;99.90
18073;DHT22;9161;47.348;9.648;2022-12-07T01:26:30;0.80;99.90
18073;DHT22;9161;47.348;9.648;2022-12-07T01:31:18;0.80;99.90
18073;DHT22;9161;47.348;9.648;2022-12-07T01:36:02;0.80;99.90
18073;DHT22;9161;47.348;9.648;2022-12-07T01:40:54;0.70;99.90
18073;DHT22;9161;47.348;9.648;2022-12-07T01:45:40;0.70;99.90
18073;DHT22;9161;47.348;9.648;2022-12-07T01:50:27;0.80;99.90
18073;DHT22;9161;47.348;9.648;2022-12-07T01:55:15;0.80;99.90
18073;DHT22;9161;47.348;9.648;2022-12-07T01:59:59;0.80;99.90
18073;DHT22;9161;47.348;9.648;2022-12-07T02:04:44;0.80;99.90
18073;DHT22;9161;47.348;9.648;2022-12-07T02:09:29;0.80;99.90
18073;DHT22;9161;47.348;9.648;2022-12-07T02:14:13;0.70;99.90
18073;DHT22;9161;47.348;9.648;2022-12-07T02:24:24;0.70;99.90
18073;DHT22;9161;47.348;9.648;2022-12-07T02:29:19;0.70;99.90
18073;DHT22;9161;47.348;9.648;2022-12-07T02:34:07;0.70;99.90
18073;DHT22;9161;47.348;9.648;2022-12-07T02:38:58;0.70;99.90
18073;DHT22;9161;47.348;9.648;2022-12-07T02:43:47;0.70;99.90
18073;DHT22;9161;47.348;9.648;2022-12-07T02:48:34;0.70;99.90
18073;DHT22;9161;47.348;9.648;2022-12-07T02:53:35;0.60;99.90
18073;DHT22;9161;47.348;9.648;2022-12-07T02:58:28;0.70;99.90
18073;DHT22;9161;47.348;9.648;2022-12-07T03:03:14;0.70;99.90
18073;DHT22;9161;47.348;9.648;2022-12-07T03:08:02;0.60;99.90
18073;DHT22;9161;47.348;9.648;2022-12-07T03:12:55;0.60;99.90
18073;DHT22;9161;47.348;9.648;2022-12-07T03:17:41;0.60;99.90
18073;DHT22;9161;47.348;9.648;2022-12-07T03:22:28;0.70;99.90
18073;DHT22;9161;47.348;9.648;2022-12-07T03:27:16;0.70;99.90
18073;DHT22;9161;47.348;9.648;2022-12-07T03:32:05;0.70;99.90
18073;DHT22;9161;47.348;9.648;2022-12-07T03:36:55;0.70;99.90
18073;DHT22;9161;47.348;9.648;2022-12-07T03:41:41;0.70;99.90
18073;DHT22;9161;47.348;9.648;2022-12-07T03:46:34;0.70;99.90
18073;DHT22;9161;47.348;9.648;2022-12-07T03:51:21;0.70;99.90
18073;DHT22;9161;47.348;9.648;2022-12-07T03:56:07;0.70;99.90
18073;DHT22;9161;47.348;9.648;2022-12-07T04:00:52;0.70;99.90
18073;DHT22;9161;47.348;9.648;2022-12-07T04:05:37;0.70;99.90
18073;DHT22;9161;47.348;9.648;2022-12-07T04:10:21;0.70;99.90
18073;DHT22;9161;47.348;9.648;2022-12-07T04:15:05;0.70;99.90
18073;DHT22;9161;47.348;9.648;2022-12-07T04:19:49;0.80;99.90
18073;DHT22;9161;47.348;9.648;2022-12-07T04:24:34;0.80;99.90
18073;DHT22;9161;47.348;9.648;2022-12-07T04:29:18;0.80;99.90
18073;DHT22;9161;47.348;9.648;2022-12-07T04:34:03;0.70;99.90
18073;DHT22;9161;47.348;9.648;2022-12-07T04:38:48;0.80;99.90
18073;DHT22;9161;47.348;9.648;2022-12-07T04:43:33;0.80;99.90
18073;DHT22;9161;47.348;9.648;2022-12-07T04:48:17;0.80;99.90
18073;DHT22;9161;47.348;9.648;2022-12-07T04:53:01;1.00;99.90
18073;DHT22;9161;47.348;9.648;2022-12-07T04:57:45;1.00;99.90
18073;DHT22;9161;47.348;9.648;2022-12-07T05:02:29;1.00;99.90
18073;DHT22;9161;47.348;9.648;2022-12-07T05:07:13;1.00;99.90
18073;DHT22;9161;47.348;9.648;2022-12-07T05:11:56;1.00;99.90
18073;DHT22;9161;47.348;9.648;2022-12-07T05:16:41;1.10;99.90
18073;DHT22;9161;47.348;9.648;2022-12-07T05:21:26;1.00;99.90
18073;DHT22;9161;47.348;9.648;2022-12-07T05:26:10;1.10;99.90
18073;DHT22;9161;47.348;9.648;2022-12-07T05:30:54;1.10;99.90
18073;DHT22;9161;47.348;9.648;2022-12-07T05:35:40;1.20;99.90
18073;DHT22;9161;47.348;9.648;2022-12-07T05:40:26;1.20;99.90
18073;DHT22;9161;47.348;9.648;2022-12-07T05:45:10;1.20;99.90
18073;DHT22;9161;47.348;9.648;2022-12-07T05:49:54;1.30;99.90
18073;DHT22;9161;47.348;9.648;2022-12-07T05:54:38;1.20;99.90
18073;DHT22;9161;47.348;9.648;2022-12-07T05:59:24;1.20;99.90
18073;DHT22;9161;47.348;9.648;2022-12-07T06:04:09;1.30;99.90
18073;DHT22;9161;47.348;9.648;2022-12-07T06:08:53;1.30;99.90
18073;DHT22;9161;47.348;9.648;2022-12-07T06:13:36;1.30;99.90
18073;DHT22;9161;47.348;9.648;2022-12-07T06:18:29;1.30;99.90
18073;DHT22;9161;47.348;9.648;2022-12-07T06:23:12;1.40;99.90
18073;DHT22;9161;47.348;9.648;2022-12-07T06:27:56;1.20;99.90
18073;DHT22;9161;47.348;9.648;2022-12-07T06:32:39;1.40;99.90
18073;DHT22;9161;47.348;9.648;2022-12-07T06:37:24;1.40;99.90
18073;DHT22;9161;47.348;9.648;2022-12-07T06:42:08;1.40;99.90
18073;DHT22;9161;47.348;9.648;2022-12-07T06:46:52;1.40;99.90
18073;DHT22;9161;47.348;9.648;2022-12-07T06:51:53;1.40;99.90
18073;DHT22;9161;47.348;9.648;2022-12-07T06:56:38;1.40;99.90
18073;DHT22;9161;47.348;9.648;2022-12-07T07:01:22;1.40;99.90
18073;DHT22;9161;47.348;9.648;2022-12-07T07:06:07;1.40;99.90
18073;DHT22;9161;47.348;9.648;2022-12-07T07:10:50;1.50;99.90
18073;DHT22;9161;47.348;9.648;2022-12-07T07:15:38;1.50;99.90
18073;DHT22;9161;47.348;9.648;2022-12-07T07:20:26;1.40;99.90
18073;DHT22;9161;47.348;9.648;2022-12-07T07:25:10;1.30;99.90
18073;DHT22;9161;47.348;9.648;2022-12-07T07:29:53;1.40;99.90
18073;DHT22;9161;47.348;9.648;2022-12-07T07:34:39;1.30;99.90
18073;DHT22;9161;47.348;9.648;2022-12-07T07:39:23;1.30;99.90
18073;DHT22;9161;47.348;9.648;2022-12-07T07:44:06;1.30;99.90
18073;DHT22;9161;47.348;9.648;2022-12-07T07:48:50;1.30;99.90
18073;DHT22;9161;47.348;9.648;2022-12-07T07:53:35;1.30;99.90
18073;DHT22;9161;47.348;9.648;2022-12-07T07:58:19;1.20;99.90
18073;DHT22;9161;47.348;9.648;2022-12-07T08:03:02;1.30;99.90
18073;DHT22;9161;47.348;9.648;2022-12-07T08:07:46;1.30;99.90
18073;DHT22;9161;47.348;9.648;2022-12-07T08:12:31;1.30;99.90
18073;DHT22;9161;47.348;9.648;2022-12-07T08:17:18;1.30;99.90
18073;DHT22;9161;47.348;9.648;2022-12-07T08:22:02;1.30;99.90
18073;DHT22;9161;47.348;9.648;2022-12-07T08:26:46;1.30;99.90
18073;DHT22;9161;47.348;9.648;2022-12-07T08:31:32;1.50;99.90
18073;DHT22;9161;47.348;9.648;2022-12-07T08:36:17;1.60;99.90
18073;DHT22;9161;47.348;9.648;2022-12-07T08:41:00;1.50;99.90
18073;DHT22;9161;47.348;9.648;2022-12-07T08:45:44;1.50;99.90
18073;DHT22;9161;47.348;9.648;2022-12-07T08:50:29;1.50;99.90
18073;DHT22;9161;47.348;9.648;2022-12-07T08:55:12;1.60;99.90
18073;DHT22;9161;47.348;9.648;2022-12-07T08:59:57;1.60;99.90
18073;DHT22;9161;47.348;9.648;2022-12-07T09:04:41;1.50;99.90
18073;DHT22;9161;47.348;9.648;2022-12-07T09:09:26;1.60;99.90
18073;DHT22;9161;47.348;9.648;2022-12-07T09:14:10;1.60;99.90
18073;DHT22;9161;47.348;9.648;2022-12-07T09:18:54;1.70;99.90
18073;DHT22;9161;47.348;9.648;2022-12-07T09:23:38;1.60;99.90
18073;DHT22;9161;47.348;9.648;2022-12-07T09:28:23;1.70;99.90
18073;DHT22;9161;47.348;9.648;2022-12-07T09:33:06;1.70;99.90
18073;DHT22;9161;47.348;9.648;2022-12-07T09:37:50;1.70;99.90
18073;DHT22;9161;47.348;9.648;2022-12-07T09:42:36;1.70;99.90
18073;DHT22;9161;47.348;9.648;2022-12-07T09:47:23;1.80;99.90
18073;DHT22;9161;47.348;9.648;2022-12-07T09:52:18;1.70;99.90
18073;DHT22;9161;47.348;9.648;2022-12-07T09:57:03;1.80;99.90
18073;DHT22;9161;47.348;9.648;2022-12-07T10:01:48;1.90;99.90
18073;DHT22;9161;47.348;9.648;2022-12-07T10:06:34;2.00;99.90
18073;DHT22;9161;47.348;9.648;2022-12-07T10:11:17;2.10;99.90
18073;DHT22;9161;47.348;9.648;2022-12-07T10:16:01;2.00;99.90
18073;DHT22;9161;47.348;9.648;2022-12-07T10:20:48;2.00;99.90
18073;DHT22;9161;47.348;9.648;2022-12-07T10:25:35;2.10;99.90
18073;DHT22;9161;47.348;9.648;2022-12-07T10:30:20;2.20;99.90
18073;DHT22;9161;47.348;9.648;2022-12-07T10:35:22;2.30;99.90
18073;DHT22;9161;47.348;9.648;2022-12-07T10:40:25;2.40;99.90
18073;DHT22;9161;47.348;9.648;2022-12-07T10:45:14;2.40;99.90
18073;DHT22;9161;47.348;9.648;2022-12-07T10:50:26;2.40;99.90
18073;DHT22;9161;47.348;9.648;2022-12-07T10:55:20;2.30;99.90
18073;DHT22;9161;47.348;9.648;2022-12-07T11:00:15;2.30;99.90
18073;DHT22;9161;47.348;9.648;2022-12-07T11:05:11;2.40;99.90
18073;DHT22;9161;47.348;9.648;2022-12-07T11:10:05;2.40;99.90
18073;DHT22;9161;47.348;9.648;2022-12-07T11:14:58;2.60;99.90
18073;DHT22;9161;47.348;9.648;2022-12-07T11:19:59;2.60;99.90
18073;DHT22;9161;47.348;9.648;2022-12-07T11:24:49;2.60;99.90
18073;DHT22;9161;47.348;9.648;2022-12-07T11:30:00;2.70;99.90
18073;DHT22;9161;47.348;9.648;2022-12-07T11:34:56;2.60;99.90
18073;DHT22;9161;47.348;9.648;2022-12-07T11:39:44;2.70;99.90
18073;DHT22;9161;47.348;9.648;2022-12-07T11:44:34;2.70;99.90
18073;DHT22;9161;47.348;9.648;2022-12-07T11:49:23;2.70;99.90
18073;DHT22;9161;47.348;9.648;2022-12-07T11:54:15;2.70;99.90
18073;DHT22;9161;47.348;9.648;2022-12-07T11:59:04;2.80;99.90
18073;DHT22;9161;47.348;9.648;2022-12-07T12:03:58;3.10;99.90
18073;DHT22;9161;47.348;9.648;2022-12-07T12:08:46;3.40;99.90
18073;DHT22;9161;47.348;9.648;2022-12-07T12:14:16;3.40;99.90
18073;DHT22;9161;47.348;9.648;2022-12-07T12:19:26;3.50;99.90
18073;DHT22;9161;47.348;9.648;2022-12-07T12:24:18;3.50;99.90
18073;DHT22;9161;47.348;9.648;2022-12-07T12:29:05;3.80;99.90
18073;DHT22;9161;47.348;9.648;2022-12-07T12:33:52;4.00;99.90
18073;DHT22;9161;47.348;9.648;2022-12-07T12:38:48;4.40;99.90
18073;DHT22;9161;47.348;9.648;2022-12-07T12:43:47;4.50;99.90
18073;DHT22;9161;47.348;9.648;2022-12-07T12:48:36;4.90;99.90
18073;DHT22;9161;47.348;9.648;2022-12-07T12:53:22;5.20;99.90
18073;DHT22;9161;47.348;9.648;2022-12-07T12:58:29;5.50;99.90
18073;DHT22;9161;47.348;9.648;2022-12-07T13:03:23;5.80;99.90
18073;DHT22;9161;47.348;9.648;2022-12-07T13:08:16;6.00;99.90
18073;DHT22;9161;47.348;9.648;2022-12-07T13:13:03;6.10;99.90
18073;DHT22;9161;47.348;9.648;2022-12-07T13:18:24;5.90;99.90
18073;DHT22;9161;47.348;9.648;2022-12-07T13:23:25;5.80;99.90
18073;DHT22;9161;47.348;9.648;2022-12-07T13:28:16;5.50;99.90
18073;DHT22;9161;47.348;9.648;2022-12-07T13:33:03;5.30;99.90
18073;DHT22;9161;47.348;9.648;2022-12-07T13:37:46;5.30;99.90
18073;DHT22;9161;47.348;9.648;2022-12-07T13:42:33;5.10;99.90
18073;DHT22;9161;47.348;9.648;2022-12-07T13:47:30;4.90;99.90
18073;DHT22;9161;47.348;9.648;2022-12-07T13:52:17;4.80;99.90
18073;DHT22;9161;47.348;9.648;2022-12-07T13:57:01;4.60;99.90
18073;DHT22;9161;47.348;9.648;2022-12-07T14:01:48;4.60;99.90
18073;DHT22;9161;47.348;9.648;2022-12-07T14:06:33;4.50;99.90
18073;DHT22;9161;47.348;9.648;2022-12-07T14:11:19;4.30;99.90
18073;DHT22;9161;47.348;9.648;2022-12-07T14:16:16;4.10;99.90
18073;DHT22;9161;47.348;9.648;2022-12-07T14:21:14;4.00;99.90
18073;DHT22;9161;47.348;9.648;2022-12-07T14:26:07;5.90;99.90
18073;DHT22;9161;47.348;9.648;2022-12-07T14:30:51;6.70;99.90
18073;DHT22;9161;47.348;9.648;2022-12-07T14:35:37;5.70;99.90
18073;DHT22;9161;47.348;9.648;2022-12-07T14:40:26;4.90;99.90
18073;DHT22;9161;47.348;9.648;2022-12-07T14:45:14;4.40;99.90
18073;DHT22;9161;47.348;9.648;2022-12-07T14:49:59;4.10;99.90
18073;DHT22;9161;47.348;9.648;2022-12-07T14:54:47;3.90;99.90
18073;DHT22;9161;47.348;9.648;2022-12-07T14:59:32;3.80;99.90
18073;DHT22;9161;47.348;9.648;2022-12-07T15:04:19;3.70;99.90
18073;DHT22;9161;47.348;9.648;2022-12-07T15:09:04;3.60;99.90
18073;DHT22;9161;47.348;9.648;2022-12-07T15:13:47;3.50;99.90
18073;DHT22;9161;47.348;9.648;2022-12-07T15:18:50;3.40;99.90
18073;DHT22;9161;47.348;9.648;2022-12-07T15:23:54;3.30;99.90
18073;DHT22;9161;47.348;9.648;2022-12-07T15:28:37;3.30;99.90
18073;DHT22;9161;47.348;9.648;2022-12-07T15:33:21;3.30;99.90
18073;DHT22;9161;47.348;9.648;2022-12-07T15:38:06;3.10;99.90
18073;DHT22;9161;47.348;9.648;2022-12-07T15:42:50;3.10;99.90
18073;DHT22;9161;47.348;9.648;2022-12-07T15:47:35;3.10;99.90
18073;DHT22;9161;47.348;9.648;2022-12-07T15:52:39;3.00;99.90
18073;DHT22;9161;47.348;9.648;2022-12-07T15:57:24;2.90;99.90
18073;DHT22;9161;47.348;9.648;2022-12-07T16:02:09;3.00;99.90
18073;DHT22;9161;47.348;9.648;2022-12-07T16:06:53;3.00;99.90
18073;DHT22;9161;47.348;9.648;2022-12-07T16:11:36;2.90;99.90
18073;DHT22;9161;47.348;9.648;2022-12-07T16:16:21;2.90;99.90
18073;DHT22;9161;47.348;9.648;2022-12-07T16:21:05;2.90;99.90
18073;DHT22;9161;47.348;9.648;2022-12-07T16:25:49;2.90;99.90
18073;DHT22;9161;47.348;9.648;2022-12-07T16:30:33;2.90;99.90
18073;DHT22;9161;47.348;9.648;2022-12-07T16:35:19;2.90;99.90
18073;DHT22;9161;47.348;9.648;2022-12-07T16:40:03;2.80;99.90
18073;DHT22;9161;47.348;9.648;2022-12-07T16:44:46;2.80;99.90
18073;DHT22;9161;47.348;9.648;2022-12-07T16:49:31;2.80;99.90
18073;DHT22;9161;47.348;9.648;2022-12-07T16:54:16;2.80;99.90
18073;DHT22;9161;47.348;9.648;2022-12-07T16:58:59;2.80;99.90
18073;DHT22;9161;47.348;9.648;2022-12-07T17:03:43;2.70;99.90
18073;DHT22;9161;47.348;9.648;2022-12-07T17:08:27;2.80;99.90
18073;DHT22;9161;47.348;9.648;2022-12-07T17:13:12;2.80;99.90
18073;DHT22;9161;47.348;9.648;2022-12-07T17:18:15;2.90;99.90
18073;DHT22;9161;47.348;9.648;2022-12-07T17:22:59;2.80;99.90
18073;DHT22;9161;47.348;9.648;2022-12-07T17:27:46;2.90;99.90
18073;DHT22;9161;47.348;9.648;2022-12-07T17:32:32;2.80;99.90
18073;DHT22;9161;47.348;9.648;2022-12-07T17:37:15;2.80;99.90
18073;DHT22;9161;47.348;9.648;2022-12-07T17:41:59;2.80;99.90
18073;DHT22;9161;47.348;9.648;2022-12-07T17:47:01;2.80;99.90
18073;DHT22;9161;47.348;9.648;2022-12-07T17:51:46;2.80;99.90
18073;DHT22;9161;47.348;9.648;2022-12-07T17:56:47;2.80;99.90
18073;DHT22;9161;47.348;9.648;2022-12-07T18:01:32;2.80;99.90
18073;DHT22;9161;47.348;9.648;2022-12-07T18:06:17;2.80;99.90
18073;DHT22;9161;47.348;9.648;2022-12-07T18:11:03;2.80;99.90
18073;DHT22;9161;47.348;9.648;2022-12-07T18:15:55;2.70;99.90
18073;DHT22;9161;47.348;9.648;2022-12-07T18:20:40;2.70;99.90
18073;DHT22;9161;47.348;9.648;2022-12-07T18:25:24;2.70;99.90
18073;DHT22;9161;47.348;9.648;2022-12-07T18:30:10;2.70;99.90
18073;DHT22;9161;47.348;9.648;2022-12-07T18:34:54;2.70;99.90
18073;DHT22;9161;47.348;9.648;2022-12-07T18:39:39;2.70;99.90
18073;DHT22;9161;47.348;9.648;2022-12-07T18:44:25;2.80;99.90
18073;DHT22;9161;47.348;9.648;2022-12-07T18:49:16;2.70;99.90
18073;DHT22;9161;47.348;9.648;2022-12-07T18:54:01;2.70;99.90
18073;DHT22;9161;47.348;9.648;2022-12-07T18:58:48;2.70;99.90
18073;DHT22;9161;47.348;9.648;2022-12-07T19:03:52;2.60;99.90
18073;DHT22;9161;47.348;9.648;2022-12-07T19:08:38;2.60;99.90
18073;DHT22;9161;47.348;9.648;2022-12-07T19:13:24;2.60;99.90
18073;DHT22;9161;47.348;9.648;2022-12-07T19:18:08;2.60;99.90
18073;DHT22;9161;47.348;9.648;2022-12-07T19:22:56;2.70;99.90
18073;DHT22;9161;47.348;9.648;2022-12-07T19:27:42;2.70;99.90
18073;DHT22;9161;47.348;9.648;2022-12-07T19:32:27;2.70;99.90
18073;DHT22;9161;47.348;9.648;2022-12-07T19:37:13;2.70;99.90
18073;DHT22;9161;47.348;9.648;2022-12-07T19:41:58;2.70;99.90
18073;DHT22;9161;47.348;9.648;2022-12-07T19:46:48;2.70;99.90
18073;DHT22;9161;47.348;9.648;2022-12-07T19:51:33;2.60;99.90
18073;DHT22;9161;47.348;9.648;2022-12-07T19:56:19;2.60;99.90
18073;DHT22;9161;47.348;9.648;2022-12-07T20:01:06;2.60;99.90
18073;DHT22;9161;47.348;9.648;2022-12-07T20:05:55;2.60;99.90
18073;DHT22;9161;47.348;9.648;2022-12-07T20:10:40;2.60;99.90
18073;DHT22;9161;47.348;9.648;2022-12-07T20:15:27;2.60;99.90
18073;DHT22;9161;47.348;9.648;2022-12-07T20:20:12;2.60;99.90
18073;DHT22;9161;47.348;9.648;2022-12-07T20:25:02;2.60;99.90
18073;DHT22;9161;47.348;9.648;2022-12-07T20:29:48;2.60;99.90
18073;DHT22;9161;47.348;9.648;2022-12-07T20:34:35;2.60;99.90
18073;DHT22;9161;47.348;9.648;2022-12-07T20:39:25;2.60;99.90
18073;DHT22;9161;47.348;9.648;2022-12-07T20:44:14;2.50;99.90
18073;DHT22;9161;47.348;9.648;2022-12-07T20:49:00;2.50;99.90
18073;DHT22;9161;47.348;9.648;2022-12-07T20:53:45;2.50;99.90
18073;DHT22;9161;47.348;9.648;2022-12-07T20:58:31;2.50;99.90
18073;DHT22;9161;47.348;9.648;2022-12-07T21:03:17;2.50;99.90
18073;DHT22;9161;47.348;9.648;2022-12-07T21:08:01;2.50;99.90
18073;DHT22;9161;47.348;9.648;2022-12-07T21:12:46;2.50;99.90
18073;DHT22;9161;47.348;9.648;2022-12-07T21:17:37;2.50;99.90
18073;DHT22;9161;47.348;9.648;2022-12-07T21:22:23;2.50;99.90
18073;DHT22;9161;47.348;9.648;2022-12-07T21:27:07;2.50;99.90
18073;DHT22;9161;47.348;9.648;2022-12-07T21:31:52;2.60;99.90
18073;DHT22;9161;47.348;9.648;2022-12-07T21:36:37;2.60;99.90
18073;DHT22;9161;47.348;9.648;2022-12-07T21:41:23;2.50;99.90
18073;DHT22;9161;47.348;9.648;2022-12-07T21:46:08;2.50;99.90
18073;DHT22;9161;47.348;9.648;2022-12-07T21:50:51;2.50;99.90
18073;DHT22;9161;47.348;9.648;2022-12-07T21:55:39;2.50;99.90
18073;DHT22;9161;47.348;9.648;2022-12-07T22:00:24;2.50;99.90
18073;DHT22;9161;47.348;9.648;2022-12-07T22:05:09;2.60;99.90
18073;DHT22;9161;47.348;9.648;2022-12-07T22:09:53;2.60;99.90
18073;DHT22;9161;47.348;9.648;2022-12-07T22:14:36;2.60;99.90
18073;DHT22;9161;47.348;9.648;2022-12-07T22:19:39;2.60;99.90
18073;DHT22;9161;47.348;9.648;2022-12-07T22:24:23;2.60;99.90
18073;DHT22;9161;47.348;9.648;2022-12-07T22:29:07;2.60;99.90
18073;DHT22;9161;47.348;9.648;2022-12-07T22:33:55;2.70;99.90
18073;DHT22;9161;47.348;9.648;2022-12-07T22:38:40;2.70;99.90
18073;DHT22;9161;47.348;9.648;2022-12-07T22:43:25;2.60;99.90
18073;DHT22;9161;47.348;9.648;2022-12-07T22:48:09;2.60;99.90
18073;DHT22;9161;47.348;9.648;2022-12-07T22:52:53;2.60;99.90
18073;DHT22;9161;47.348;9.648;2022-12-07T22:57:39;2.50;99.90
18073;DHT22;9161;47.348;9.648;2022-12-07T23:02:23;2.50;99.90
18073;DHT22;9161;47.348;9.648;2022-12-07T23:07:07;2.50;99.90
18073;DHT22;9161;47.348;9.648;2022-12-07T23:11:50;2.40;99.90
18073;DHT22;9161;47.348;9.648;2022-12-07T23:16:53;2.50;99.90
18073;DHT22;9161;47.348;9.648;2022-12-07T23:21:38;2.40;99.90
18073;DHT22;9161;47.348;9.648;2022-12-07T23:26:21;2.40;99.90
18073;DHT22;9161;47.348;9.648;2022-12-07T23:31:06;2.40;99.90
18073;DHT22;9161;47.348;9.648;2022-12-07T23:35:51;2.30;99.90
18073;DHT22;9161;47.348;9.648;2022-12-07T23:40:35;2.30;99.90
18073;DHT22;9161;47.348;9.648;2022-12-07T23:45:19;2.30;99.90
18073;DHT22;9161;47.348;9.648;2022-12-07T23:50:04;2.20;99.90
18073;DHT22;9161;47.348;9.648;2022-12-07T23:54:49;2.20;99.90
18073;DHT22;9161;47.348;9.648;2022-12-07T23:59:33;2.10;99.90
